sensor_id;sensor_type;location;lat;lon;timestamp;temperature;humidity
4635;DHT22;2330;48.158;11.816;2023-04-24T00:00:09;10.50;98.50
4635;DHT22;2330;48.158;11.816;2023-04-24T00:02:36;10.50;98.50
4635;DHT22;2330;48.158;11.816;2023-04-24T00:05:06;10.40;98.50
4635;DHT22;2330;48.158;11.816;2023-04-24T00:07:34;10.30;98.50
4635;DHT22;2330;48.158;11.816;2023-04-24T00:10:00;10.30;98.50
4635;DHT22;2330;48.158;11.816;2023-04-24T00:12:27;10.30;98.50
4635;DHT22;2330;48.158;11.816;2023-04-24T00:14:54;10.30;98.50
4635;DHT22;2330;48.158;11.816;2023-04-24T00:17:20;10.20;98.50
4635;DHT22;2330;48.158;11.816;2023-04-24T00:19:48;10.20;98.50
4635;DHT22;2330;48.158;11.816;2023-04-24T00:22:15;10.20;98.50
4635;DHT22;2330;48.158;11.816;2023-04-24T00:24:41;10.20;98.50
4635;DHT22;2330;48.158;11.816;2023-04-24T00:27:08;10.20;98.50
4635;DHT22;2330;48.158;11.816;2023-04-24T00:29:35;10.10;98.50
4635;DHT22;2330;48.158;11.816;2023-04-24T00:32:02;10.10;98.50
4635;DHT22;2330;48.158;11.816;2023-04-24T00:34:29;10.10;98.50
4635;DHT22;2330;48.158;11.816;2023-04-24T00:36:55;10.10;98.50
4635;DHT22;2330;48.158;11.816;2023-04-24T00:39:22;10.10;98.50
4635;DHT22;2330;48.158;11.816;2023-04-24T00:41:49;10.00;98.50
4635;DHT22;2330;48.158;11.816;2023-04-24T00:44:17;10.00;98.50
4635;DHT22;2330;48.158;11.816;2023-04-24T00:46:44;10.00;98.50
4635;DHT22;2330;48.158;11.816;2023-04-24T00:49:12;10.00;98.50
4635;DHT22;2330;48.158;11.816;2023-04-24T00:51:38;10.10;98.50
4635;DHT22;2330;48.158;11.816;2023-04-24T00:54:07;10.10;98.50
4635;DHT22;2330;48.158;11.816;2023-04-24T00:56:34;10.10;98.50
4635;DHT22;2330;48.158;11.816;2023-04-24T00:59:01;10.10;98.50
4635;DHT22;2330;48.158;11.816;2023-04-24T01:01:27;10.10;98.50
4635;DHT22;2330;48.158;11.816;2023-04-24T01:03:55;10.10;98.50
4635;DHT22;2330;48.158;11.816;2023-04-24T01:06:27;10.10;98.50
4635;DHT22;2330;48.158;11.816;2023-04-24T01:08:54;10.10;98.50
4635;DHT22;2330;48.158;11.816;2023-04-24T01:11:22;10.20;98.50
4635;DHT22;2330;48.158;11.816;2023-04-24T01:13:48;10.20;98.50
4635;DHT22;2330;48.158;11.816;2023-04-24T01:16:15;10.10;98.50
4635;DHT22;2330;48.158;11.816;2023-04-24T01:18:45;10.20;98.50
4635;DHT22;2330;48.158;11.816;2023-04-24T01:21:14;10.10;98.50
4635;DHT22;2330;48.158;11.816;2023-04-24T01:23:45;10.10;98.50
4635;DHT22;2330;48.158;11.816;2023-04-24T01:26:16;10.10;98.50
4635;DHT22;2330;48.158;11.816;2023-04-24T01:28:43;10.10;98.50
4635;DHT22;2330;48.158;11.816;2023-04-24T01:31:09;10.00;98.50
4635;DHT22;2330;48.158;11.816;2023-04-24T01:33:36;10.00;98.50
4635;DHT22;2330;48.158;11.816;2023-04-24T01:36:03;10.00;98.50
4635;DHT22;2330;48.158;11.816;2023-04-24T01:38:30;10.00;98.50
4635;DHT22;2330;48.158;11.816;2023-04-24T01:40:57;9.90;98.50
4635;DHT22;2330;48.158;11.816;2023-04-24T01:43:24;9.90;98.50
4635;DHT22;2330;48.158;11.816;2023-04-24T01:45:51;9.90;98.50
4635;DHT22;2330;48.158;11.816;2023-04-24T01:48:17;9.90;98.50
4635;DHT22;2330;48.158;11.816;2023-04-24T01:50:44;9.80;98.50
4635;DHT22;2330;48.158;11.816;2023-04-24T01:53:11;9.80;98.50
4635;DHT22;2330;48.158;11.816;2023-04-24T01:55:38;9.80;98.50
4635;DHT22;2330;48.158;11.816;2023-04-24T01:58:05;9.80;98.50
4635;DHT22;2330;48.158;11.816;2023-04-24T02:00:32;9.80;98.50
4635;DHT22;2330;48.158;11.816;2023-04-24T02:02:58;9.80;98.50
4635;DHT22;2330;48.158;11.816;2023-04-24T02:05:25;9.70;98.50
4635;DHT22;2330;48.158;11.816;2023-04-24T02:07:52;9.70;98.50
4635;DHT22;2330;48.158;11.816;2023-04-24T02:10:19;9.70;98.50
4635;DHT22;2330;48.158;11.816;2023-04-24T02:12:46;9.70;98.50
4635;DHT22;2330;48.158;11.816;2023-04-24T02:15:12;9.70;98.50
4635;DHT22;2330;48.158;11.816;2023-04-24T02:17:39;9.60;98.50
4635;DHT22;2330;48.158;11.816;2023-04-24T02:20:07;9.60;98.50
4635;DHT22;2330;48.158;11.816;2023-04-24T02:22:34;9.60;98.50
4635;DHT22;2330;48.158;11.816;2023-04-24T02:25:01;9.60;98.50
4635;DHT22;2330;48.158;11.816;2023-04-24T02:27:28;9.60;98.50
4635;DHT22;2330;48.158;11.816;2023-04-24T02:29:55;9.50;98.50
4635;DHT22;2330;48.158;11.816;2023-04-24T02:32:21;9.50;98.50
4635;DHT22;2330;48.158;11.816;2023-04-24T02:34:48;9.50;98.50
4635;DHT22;2330;48.158;11.816;2023-04-24T02:37:15;9.50;98.50
4635;DHT22;2330;48.158;11.816;2023-04-24T02:39:41;9.50;98.50
4635;DHT22;2330;48.158;11.816;2023-04-24T02:42:08;9.50;98.50
4635;DHT22;2330;48.158;11.816;2023-04-24T02:44:35;9.50;98.50
4635;DHT22;2330;48.158;11.816;2023-04-24T02:47:02;9.40;98.50
4635;DHT22;2330;48.158;11.816;2023-04-24T02:49:29;9.40;98.50
4635;DHT22;2330;48.158;11.816;2023-04-24T02:51:55;9.40;98.50
4635;DHT22;2330;48.158;11.816;2023-04-24T02:54:22;9.40;98.50
4635;DHT22;2330;48.158;11.816;2023-04-24T02:56:49;9.40;98.50
4635;DHT22;2330;48.158;11.816;2023-04-24T02:59:16;9.40;98.50
4635;DHT22;2330;48.158;11.816;2023-04-24T03:01:42;9.30;98.50
4635;DHT22;2330;48.158;11.816;2023-04-24T03:04:09;9.30;98.50
4635;DHT22;2330;48.158;11.816;2023-04-24T03:06:37;9.30;98.50
4635;DHT22;2330;48.158;11.816;2023-04-24T03:09:04;9.30;98.50
4635;DHT22;2330;48.158;11.816;2023-04-24T03:11:31;9.30;98.50
4635;DHT22;2330;48.158;11.816;2023-04-24T03:13:57;9.30;98.50
4635;DHT22;2330;48.158;11.816;2023-04-24T03:16:24;9.30;98.50
4635;DHT22;2330;48.158;11.816;2023-04-24T03:18:51;9.20;98.50
4635;DHT22;2330;48.158;11.816;2023-04-24T03:21:18;9.20;98.50
4635;DHT22;2330;48.158;11.816;2023-04-24T03:23:45;9.20;98.50
4635;DHT22;2330;48.158;11.816;2023-04-24T03:26:11;9.20;98.50
4635;DHT22;2330;48.158;11.816;2023-04-24T03:28:38;9.20;98.50
4635;DHT22;2330;48.158;11.816;2023-04-24T03:31:05;9.10;98.50
4635;DHT22;2330;48.158;11.816;2023-04-24T03:33:32;9.10;98.50
4635;DHT22;2330;48.158;11.816;2023-04-24T03:35:58;9.00;98.50
4635;DHT22;2330;48.158;11.816;2023-04-24T03:38:25;9.00;98.50
4635;DHT22;2330;48.158;11.816;2023-04-24T03:40:52;9.00;98.50
4635;DHT22;2330;48.158;11.816;2023-04-24T03:43:18;9.00;98.50
4635;DHT22;2330;48.158;11.816;2023-04-24T03:45:45;9.00;98.50
4635;DHT22;2330;48.158;11.816;2023-04-24T03:48:12;9.00;98.50
4635;DHT22;2330;48.158;11.816;2023-04-24T03:50:39;9.00;98.50
4635;DHT22;2330;48.158;11.816;2023-04-24T03:53:05;9.00;98.50
4635;DHT22;2330;48.158;11.816;2023-04-24T03:55:32;9.00;98.50
4635;DHT22;2330;48.158;11.816;2023-04-24T03:57:59;9.00;98.50
4635;DHT22;2330;48.158;11.816;2023-04-24T04:00:25;8.90;98.50
4635;DHT22;2330;48.158;11.816;2023-04-24T04:02:52;8.90;98.50
4635;DHT22;2330;48.158;11.816;2023-04-24T04:05:20;8.90;98.50
4635;DHT22;2330;48.158;11.816;2023-04-24T04:07:46;8.90;98.50
4635;DHT22;2330;48.158;11.816;2023-04-24T04:10:13;8.90;98.50
4635;DHT22;2330;48.158;11.816;2023-04-24T04:12:40;8.90;98.50
4635;DHT22;2330;48.158;11.816;2023-04-24T04:15:07;8.90;98.50
4635;DHT22;2330;48.158;11.816;2023-04-24T04:17:34;8.90;98.50
4635;DHT22;2330;48.158;11.816;2023-04-24T04:20:01;8.90;98.50
4635;DHT22;2330;48.158;11.816;2023-04-24T04:22:28;8.90;98.50
4635;DHT22;2330;48.158;11.816;2023-04-24T04:24:54;8.90;98.50
4635;DHT22;2330;48.158;11.816;2023-04-24T04:27:21;8.90;98.50
4635;DHT22;2330;48.158;11.816;2023-04-24T04:29:48;9.00;98.50
4635;DHT22;2330;48.158;11.816;2023-04-24T04:32:15;9.00;98.50
4635;DHT22;2330;48.158;11.816;2023-04-24T04:34:42;9.00;98.50
4635;DHT22;2330;48.158;11.816;2023-04-24T04:37:11;9.00;98.50
4635;DHT22;2330;48.158;11.816;2023-04-24T04:39:39;9.00;98.50
4635;DHT22;2330;48.158;11.816;2023-04-24T04:42:06;9.00;98.50
4635;DHT22;2330;48.158;11.816;2023-04-24T04:44:33;9.00;98.50
4635;DHT22;2330;48.158;11.816;2023-04-24T04:47:02;9.00;98.50
4635;DHT22;2330;48.158;11.816;2023-04-24T04:49:32;9.00;98.50
4635;DHT22;2330;48.158;11.816;2023-04-24T04:51:59;9.00;98.50
4635;DHT22;2330;48.158;11.816;2023-04-24T04:54:25;9.00;98.50
4635;DHT22;2330;48.158;11.816;2023-04-24T04:56:52;9.00;98.50
4635;DHT22;2330;48.158;11.816;2023-04-24T04:59:19;9.00;98.50
4635;DHT22;2330;48.158;11.816;2023-04-24T05:01:46;9.00;98.50
4635;DHT22;2330;48.158;11.816;2023-04-24T05:04:13;9.00;98.50
4635;DHT22;2330;48.158;11.816;2023-04-24T05:06:40;9.10;98.50
4635;DHT22;2330;48.158;11.816;2023-04-24T05:09:06;9.10;98.50
4635;DHT22;2330;48.158;11.816;2023-04-24T05:11:34;9.10;98.50
4635;DHT22;2330;48.158;11.816;2023-04-24T05:14:00;9.10;98.50
4635;DHT22;2330;48.158;11.816;2023-04-24T05:16:27;9.10;98.50
4635;DHT22;2330;48.158;11.816;2023-04-24T05:18:54;9.10;98.50
4635;DHT22;2330;48.158;11.816;2023-04-24T05:21:21;9.10;98.50
4635;DHT22;2330;48.158;11.816;2023-04-24T05:23:47;9.10;98.50
4635;DHT22;2330;48.158;11.816;2023-04-24T05:26:14;9.10;98.50
4635;DHT22;2330;48.158;11.816;2023-04-24T05:28:41;9.10;98.50
4635;DHT22;2330;48.158;11.816;2023-04-24T05:31:08;9.10;98.50
4635;DHT22;2330;48.158;11.816;2023-04-24T05:33:35;9.10;98.50
4635;DHT22;2330;48.158;11.816;2023-04-24T05:36:02;9.10;98.50
4635;DHT22;2330;48.158;11.816;2023-04-24T05:38:28;9.10;98.50
4635;DHT22;2330;48.158;11.816;2023-04-24T05:40:55;9.20;98.50
4635;DHT22;2330;48.158;11.816;2023-04-24T05:43:22;9.20;98.50
4635;DHT22;2330;48.158;11.816;2023-04-24T05:45:48;9.20;98.50
4635;DHT22;2330;48.158;11.816;2023-04-24T05:48:15;9.20;98.50
4635;DHT22;2330;48.158;11.816;2023-04-24T05:50:42;9.20;98.50
4635;DHT22;2330;48.158;11.816;2023-04-24T05:53:08;9.20;98.50
4635;DHT22;2330;48.158;11.816;2023-04-24T05:55:37;9.30;98.50
4635;DHT22;2330;48.158;11.816;2023-04-24T05:58:03;9.30;98.50
4635;DHT22;2330;48.158;11.816;2023-04-24T06:00:30;9.40;98.50
4635;DHT22;2330;48.158;11.816;2023-04-24T06:02:57;9.40;98.50
4635;DHT22;2330;48.158;11.816;2023-04-24T06:05:25;9.50;98.50
4635;DHT22;2330;48.158;11.816;2023-04-24T06:07:51;9.50;98.50
4635;DHT22;2330;48.158;11.816;2023-04-24T06:10:18;9.60;98.50
4635;DHT22;2330;48.158;11.816;2023-04-24T06:12:45;9.60;98.50
4635;DHT22;2330;48.158;11.816;2023-04-24T06:15:12;9.60;98.50
4635;DHT22;2330;48.158;11.816;2023-04-24T06:17:39;9.70;98.50
4635;DHT22;2330;48.158;11.816;2023-04-24T06:20:06;9.70;98.50
4635;DHT22;2330;48.158;11.816;2023-04-24T06:22:34;9.80;98.50
4635;DHT22;2330;48.158;11.816;2023-04-24T06:25:02;9.80;98.50
4635;DHT22;2330;48.158;11.816;2023-04-24T06:27:28;9.80;98.50
4635;DHT22;2330;48.158;11.816;2023-04-24T06:29:55;9.80;98.50
4635;DHT22;2330;48.158;11.816;2023-04-24T06:32:23;9.80;98.50
4635;DHT22;2330;48.158;11.816;2023-04-24T06:34:51;9.80;98.50
4635;DHT22;2330;48.158;11.816;2023-04-24T06:37:20;9.80;98.50
4635;DHT22;2330;48.158;11.816;2023-04-24T06:39:47;9.90;98.50
4635;DHT22;2330;48.158;11.816;2023-04-24T06:42:13;9.90;98.50
4635;DHT22;2330;48.158;11.816;2023-04-24T06:44:40;9.90;98.50
4635;DHT22;2330;48.158;11.816;2023-04-24T06:47:08;9.90;98.50
4635;DHT22;2330;48.158;11.816;2023-04-24T06:49:36;10.00;98.50
4635;DHT22;2330;48.158;11.816;2023-04-24T06:52:03;9.90;98.50
4635;DHT22;2330;48.158;11.816;2023-04-24T06:54:30;9.90;98.50
4635;DHT22;2330;48.158;11.816;2023-04-24T06:56:57;9.90;98.50
4635;DHT22;2330;48.158;11.816;2023-04-24T06:59:24;9.90;98.50
4635;DHT22;2330;48.158;11.816;2023-04-24T07:01:51;10.00;98.50
4635;DHT22;2330;48.158;11.816;2023-04-24T07:04:21;10.00;98.50
4635;DHT22;2330;48.158;11.816;2023-04-24T07:06:48;10.00;98.50
4635;DHT22;2330;48.158;11.816;2023-04-24T07:09:19;10.10;98.50
4635;DHT22;2330;48.158;11.816;2023-04-24T07:11:46;10.10;98.50
4635;DHT22;2330;48.158;11.816;2023-04-24T07:14:13;10.20;98.50
4635;DHT22;2330;48.158;11.816;2023-04-24T07:16:40;10.30;98.50
4635;DHT22;2330;48.158;11.816;2023-04-24T07:19:07;10.40;98.50
4635;DHT22;2330;48.158;11.816;2023-04-24T07:21:33;10.40;98.50
4635;DHT22;2330;48.158;11.816;2023-04-24T07:24:00;10.50;98.50
4635;DHT22;2330;48.158;11.816;2023-04-24T07:26:29;10.60;98.50
4635;DHT22;2330;48.158;11.816;2023-04-24T07:28:56;10.70;98.50
4635;DHT22;2330;48.158;11.816;2023-04-24T07:31:23;10.90;98.50
4635;DHT22;2330;48.158;11.816;2023-04-24T07:33:49;11.00;98.50
4635;DHT22;2330;48.158;11.816;2023-04-24T07:36:16;11.10;98.50
4635;DHT22;2330;48.158;11.816;2023-04-24T07:38:46;11.30;98.50
4635;DHT22;2330;48.158;11.816;2023-04-24T07:41:13;11.50;98.50
4635;DHT22;2330;48.158;11.816;2023-04-24T07:43:40;11.70;98.50
4635;DHT22;2330;48.158;11.816;2023-04-24T07:46:08;11.90;98.50
4635;DHT22;2330;48.158;11.816;2023-04-24T07:48:35;12.00;98.50
4635;DHT22;2330;48.158;11.816;2023-04-24T07:51:02;11.90;98.50
4635;DHT22;2330;48.158;11.816;2023-04-24T07:53:28;11.80;98.50
4635;DHT22;2330;48.158;11.816;2023-04-24T07:55:56;11.90;98.50
4635;DHT22;2330;48.158;11.816;2023-04-24T07:58:22;11.80;98.50
4635;DHT22;2330;48.158;11.816;2023-04-24T08:00:49;11.70;98.50
4635;DHT22;2330;48.158;11.816;2023-04-24T08:03:16;11.70;98.50
4635;DHT22;2330;48.158;11.816;2023-04-24T08:05:46;11.70;98.50
4635;DHT22;2330;48.158;11.816;2023-04-24T08:08:13;11.50;98.50
4635;DHT22;2330;48.158;11.816;2023-04-24T08:10:40;11.50;98.50
4635;DHT22;2330;48.158;11.816;2023-04-24T08:13:07;11.40;98.50
4635;DHT22;2330;48.158;11.816;2023-04-24T08:15:34;11.40;98.50
4635;DHT22;2330;48.158;11.816;2023-04-24T08:18:01;11.30;98.50
4635;DHT22;2330;48.158;11.816;2023-04-24T08:20:27;11.30;98.50
4635;DHT22;2330;48.158;11.816;2023-04-24T08:22:54;11.30;98.50
4635;DHT22;2330;48.158;11.816;2023-04-24T08:25:21;11.40;98.50
4635;DHT22;2330;48.158;11.816;2023-04-24T08:27:49;11.40;98.50
4635;DHT22;2330;48.158;11.816;2023-04-24T08:30:16;11.60;98.50
4635;DHT22;2330;48.158;11.816;2023-04-24T08:32:43;11.80;98.50
4635;DHT22;2330;48.158;11.816;2023-04-24T08:35:10;11.90;98.50
4635;DHT22;2330;48.158;11.816;2023-04-24T08:37:37;12.10;98.50
4635;DHT22;2330;48.158;11.816;2023-04-24T08:40:10;12.20;98.50
4635;DHT22;2330;48.158;11.816;2023-04-24T08:42:39;12.20;98.50
4635;DHT22;2330;48.158;11.816;2023-04-24T08:45:06;12.00;98.50
4635;DHT22;2330;48.158;11.816;2023-04-24T08:47:35;11.90;98.50
4635;DHT22;2330;48.158;11.816;2023-04-24T08:50:03;11.70;98.50
4635;DHT22;2330;48.158;11.816;2023-04-24T08:52:35;11.60;98.50
4635;DHT22;2330;48.158;11.816;2023-04-24T08:55:02;11.40;98.50
4635;DHT22;2330;48.158;11.816;2023-04-24T08:57:29;11.40;98.50
4635;DHT22;2330;48.158;11.816;2023-04-24T08:59:58;11.40;98.50
4635;DHT22;2330;48.158;11.816;2023-04-24T09:02:25;11.10;98.50
4635;DHT22;2330;48.158;11.816;2023-04-24T09:04:53;10.70;98.50
4635;DHT22;2330;48.158;11.816;2023-04-24T09:07:24;10.30;98.50
4635;DHT22;2330;48.158;11.816;2023-04-24T09:09:51;10.20;98.50
4635;DHT22;2330;48.158;11.816;2023-04-24T09:12:18;10.30;98.50
4635;DHT22;2330;48.158;11.816;2023-04-24T09:14:45;10.40;98.50
4635;DHT22;2330;48.158;11.816;2023-04-24T09:17:12;10.60;98.50
4635;DHT22;2330;48.158;11.816;2023-04-24T09:19:40;10.80;98.50
4635;DHT22;2330;48.158;11.816;2023-04-24T09:22:08;10.80;98.50
4635;DHT22;2330;48.158;11.816;2023-04-24T09:24:36;10.90;98.50
4635;DHT22;2330;48.158;11.816;2023-04-24T09:27:03;10.80;98.50
4635;DHT22;2330;48.158;11.816;2023-04-24T09:29:30;10.70;98.50
4635;DHT22;2330;48.158;11.816;2023-04-24T09:31:59;10.60;98.50
4635;DHT22;2330;48.158;11.816;2023-04-24T09:34:47;10.60;98.50
4635;DHT22;2330;48.158;11.816;2023-04-24T09:37:29;10.80;98.50
4635;DHT22;2330;48.158;11.816;2023-04-24T09:40:14;11.00;98.50
4635;DHT22;2330;48.158;11.816;2023-04-24T09:42:54;11.10;98.50
4635;DHT22;2330;48.158;11.816;2023-04-24T09:45:26;11.20;98.50
4635;DHT22;2330;48.158;11.816;2023-04-24T09:47:55;11.30;98.50
4635;DHT22;2330;48.158;11.816;2023-04-24T09:50:22;11.50;98.50
4635;DHT22;2330;48.158;11.816;2023-04-24T09:53:01;11.60;98.50
4635;DHT22;2330;48.158;11.816;2023-04-24T09:55:29;11.80;98.50
4635;DHT22;2330;48.158;11.816;2023-04-24T09:58:00;11.90;98.50
4635;DHT22;2330;48.158;11.816;2023-04-24T10:00:29;12.00;98.50
4635;DHT22;2330;48.158;11.816;2023-04-24T10:02:57;12.10;98.50
4635;DHT22;2330;48.158;11.816;2023-04-24T10:05:32;12.30;98.50
4635;DHT22;2330;48.158;11.816;2023-04-24T10:08:03;12.30;98.50
4635;DHT22;2330;48.158;11.816;2023-04-24T10:10:31;12.40;98.50
4635;DHT22;2330;48.158;11.816;2023-04-24T10:12:59;12.60;98.50
4635;DHT22;2330;48.158;11.816;2023-04-24T10:15:27;12.60;98.50
4635;DHT22;2330;48.158;11.816;2023-04-24T10:17:54;12.70;98.50
4635;DHT22;2330;48.158;11.816;2023-04-24T10:20:23;12.80;98.50
4635;DHT22;2330;48.158;11.816;2023-04-24T10:22:51;12.70;98.50
4635;DHT22;2330;48.158;11.816;2023-04-24T10:25:20;12.50;98.50
4635;DHT22;2330;48.158;11.816;2023-04-24T10:27:48;12.70;98.50
4635;DHT22;2330;48.158;11.816;2023-04-24T10:30:16;12.90;98.50
4635;DHT22;2330;48.158;11.816;2023-04-24T10:32:43;12.90;98.20
4635;DHT22;2330;48.158;11.816;2023-04-24T10:35:12;13.00;98.50
4635;DHT22;2330;48.158;11.816;2023-04-24T10:37:58;13.00;98.50
4635;DHT22;2330;48.158;11.816;2023-04-24T10:40:29;13.10;98.50
4635;DHT22;2330;48.158;11.816;2023-04-24T10:42:57;13.00;98.40
4635;DHT22;2330;48.158;11.816;2023-04-24T10:45:25;13.00;98.10
4635;DHT22;2330;48.158;11.816;2023-04-24T10:47:59;13.30;98.20
4635;DHT22;2330;48.158;11.816;2023-04-24T10:50:57;13.60;97.60
4635;DHT22;2330;48.158;11.816;2023-04-24T10:53:27;13.80;96.40
4635;DHT22;2330;48.158;11.816;2023-04-24T10:56:02;13.80;95.90
4635;DHT22;2330;48.158;11.816;2023-04-24T10:58:52;13.90;97.70
4635;DHT22;2330;48.158;11.816;2023-04-24T11:01:30;14.10;96.10
4635;DHT22;2330;48.158;11.816;2023-04-24T11:04:00;13.70;94.80
4635;DHT22;2330;48.158;11.816;2023-04-24T11:06:32;13.20;95.80
4635;DHT22;2330;48.158;11.816;2023-04-24T11:11:35;12.60;97.50
4635;DHT22;2330;48.158;11.816;2023-04-24T11:14:05;12.10;98.50
4635;DHT22;2330;48.158;11.816;2023-04-24T11:16:52;11.30;98.50
4635;DHT22;2330;48.158;11.816;2023-04-24T11:19:26;10.20;98.50
4635;DHT22;2330;48.158;11.816;2023-04-24T11:21:58;9.70;98.50
4635;DHT22;2330;48.158;11.816;2023-04-24T11:24:39;9.40;98.50
4635;DHT22;2330;48.158;11.816;2023-04-24T11:27:14;9.30;98.50
4635;DHT22;2330;48.158;11.816;2023-04-24T11:32:23;9.30;98.50
4635;DHT22;2330;48.158;11.816;2023-04-24T11:34:56;9.50;98.50
4635;DHT22;2330;48.158;11.816;2023-04-24T11:37:26;10.00;98.50
4635;DHT22;2330;48.158;11.816;2023-04-24T11:39:57;10.50;98.50
4635;DHT22;2330;48.158;11.816;2023-04-24T11:42:25;10.90;98.50
4635;DHT22;2330;48.158;11.816;2023-04-24T11:44:52;11.40;98.50
4635;DHT22;2330;48.158;11.816;2023-04-24T11:47:19;11.70;98.50
4635;DHT22;2330;48.158;11.816;2023-04-24T11:49:50;12.00;98.50
4635;DHT22;2330;48.158;11.816;2023-04-24T11:52:17;12.00;98.50
4635;DHT22;2330;48.158;11.816;2023-04-24T11:54:50;12.10;98.50
4635;DHT22;2330;48.158;11.816;2023-04-24T11:57:19;12.10;98.50
4635;DHT22;2330;48.158;11.816;2023-04-24T11:59:49;12.20;98.50
4635;DHT22;2330;48.158;11.816;2023-04-24T12:02:26;12.30;98.50
4635;DHT22;2330;48.158;11.816;2023-04-24T12:04:54;12.20;98.50
4635;DHT22;2330;48.158;11.816;2023-04-24T12:07:23;12.30;98.50
4635;DHT22;2330;48.158;11.816;2023-04-24T12:09:58;12.60;98.50
4635;DHT22;2330;48.158;11.816;2023-04-24T12:12:29;13.00;98.50
4635;DHT22;2330;48.158;11.816;2023-04-24T12:14:57;13.50;98.50
4635;DHT22;2330;48.158;11.816;2023-04-24T12:17:26;13.80;98.50
4635;DHT22;2330;48.158;11.816;2023-04-24T12:20:06;13.90;98.50
4635;DHT22;2330;48.158;11.816;2023-04-24T12:22:53;13.90;98.40
4635;DHT22;2330;48.158;11.816;2023-04-24T12:25:23;13.60;97.70
4635;DHT22;2330;48.158;11.816;2023-04-24T12:28:16;13.50;98.00
4635;DHT22;2330;48.158;11.816;2023-04-24T12:30:48;13.50;98.00
4635;DHT22;2330;48.158;11.816;2023-04-24T12:33:22;13.50;98.50
4635;DHT22;2330;48.158;11.816;2023-04-24T12:35:51;13.60;98.50
4635;DHT22;2330;48.158;11.816;2023-04-24T12:38:24;13.60;98.50
4635;DHT22;2330;48.158;11.816;2023-04-24T12:41:02;13.70;98.50
4635;DHT22;2330;48.158;11.816;2023-04-24T12:43:30;13.90;97.00
4635;DHT22;2330;48.158;11.816;2023-04-24T12:45:57;13.90;95.40
4635;DHT22;2330;48.158;11.816;2023-04-24T12:48:26;14.00;97.10
4635;DHT22;2330;48.158;11.816;2023-04-24T12:50:53;14.20;96.90
4635;DHT22;2330;48.158;11.816;2023-04-24T12:53:20;14.30;95.60
4635;DHT22;2330;48.158;11.816;2023-04-24T12:55:47;14.10;96.70
4635;DHT22;2330;48.158;11.816;2023-04-24T12:58:19;14.00;96.00
4635;DHT22;2330;48.158;11.816;2023-04-24T13:00:47;13.80;94.10
4635;DHT22;2330;48.158;11.816;2023-04-24T13:03:14;13.60;92.50
4635;DHT22;2330;48.158;11.816;2023-04-24T13:05:42;13.60;93.90
4635;DHT22;2330;48.158;11.816;2023-04-24T13:08:09;13.60;94.40
4635;DHT22;2330;48.158;11.816;2023-04-24T13:10:36;13.60;95.30
4635;DHT22;2330;48.158;11.816;2023-04-24T13:13:03;13.50;92.90
4635;DHT22;2330;48.158;11.816;2023-04-24T13:15:30;13.50;92.50
4635;DHT22;2330;48.158;11.816;2023-04-24T13:17:57;13.30;92.00
4635;DHT22;2330;48.158;11.816;2023-04-24T13:20:23;12.90;97.60
4635;DHT22;2330;48.158;11.816;2023-04-24T13:22:50;12.20;98.50
4635;DHT22;2330;48.158;11.816;2023-04-24T13:25:17;12.20;98.50
4635;DHT22;2330;48.158;11.816;2023-04-24T13:27:44;12.20;98.50
4635;DHT22;2330;48.158;11.816;2023-04-24T13:30:11;12.20;97.20
4635;DHT22;2330;48.158;11.816;2023-04-24T13:32:38;12.20;97.00
4635;DHT22;2330;48.158;11.816;2023-04-24T13:35:05;12.10;97.60
4635;DHT22;2330;48.158;11.816;2023-04-24T13:37:32;12.00;98.50
4635;DHT22;2330;48.158;11.816;2023-04-24T13:39:58;11.80;98.50
4635;DHT22;2330;48.158;11.816;2023-04-24T13:42:25;11.50;98.50
4635;DHT22;2330;48.158;11.816;2023-04-24T13:44:52;11.60;98.50
4635;DHT22;2330;48.158;11.816;2023-04-24T13:47:18;11.80;98.50
4635;DHT22;2330;48.158;11.816;2023-04-24T13:49:45;12.20;98.50
4635;DHT22;2330;48.158;11.816;2023-04-24T13:52:12;12.70;98.50
4635;DHT22;2330;48.158;11.816;2023-04-24T13:54:39;13.20;98.50
4635;DHT22;2330;48.158;11.816;2023-04-24T13:57:05;13.70;97.80
4635;DHT22;2330;48.158;11.816;2023-04-24T13:59:32;14.00;94.80
4635;DHT22;2330;48.158;11.816;2023-04-24T14:01:59;14.30;92.10
4635;DHT22;2330;48.158;11.816;2023-04-24T14:04:25;14.50;90.80
4635;DHT22;2330;48.158;11.816;2023-04-24T14:06:53;14.10;89.40
4635;DHT22;2330;48.158;11.816;2023-04-24T14:09:19;13.80;91.40
4635;DHT22;2330;48.158;11.816;2023-04-24T14:11:46;13.40;91.50
4635;DHT22;2330;48.158;11.816;2023-04-24T14:14:13;13.20;92.70
4635;DHT22;2330;48.158;11.816;2023-04-24T14:16:39;13.00;92.80
4635;DHT22;2330;48.158;11.816;2023-04-24T14:19:06;13.00;94.50
4635;DHT22;2330;48.158;11.816;2023-04-24T14:21:33;13.30;93.80
4635;DHT22;2330;48.158;11.816;2023-04-24T14:24:00;13.50;91.00
4635;DHT22;2330;48.158;11.816;2023-04-24T14:26:27;13.60;91.20
4635;DHT22;2330;48.158;11.816;2023-04-24T14:28:54;13.60;88.70
4635;DHT22;2330;48.158;11.816;2023-04-24T14:31:36;13.40;89.20
4635;DHT22;2330;48.158;11.816;2023-04-24T14:34:03;13.30;92.50
4635;DHT22;2330;48.158;11.816;2023-04-24T14:36:30;13.20;91.30
4635;DHT22;2330;48.158;11.816;2023-04-24T14:38:57;13.00;90.70
4635;DHT22;2330;48.158;11.816;2023-04-24T14:41:24;12.90;91.60
4635;DHT22;2330;48.158;11.816;2023-04-24T14:43:51;13.00;92.60
4635;DHT22;2330;48.158;11.816;2023-04-24T14:46:18;13.00;91.60
4635;DHT22;2330;48.158;11.816;2023-04-24T14:48:44;12.90;90.60
4635;DHT22;2330;48.158;11.816;2023-04-24T14:51:11;12.90;91.20
4635;DHT22;2330;48.158;11.816;2023-04-24T14:53:38;13.20;91.70
4635;DHT22;2330;48.158;11.816;2023-04-24T14:56:05;13.50;89.60
4635;DHT22;2330;48.158;11.816;2023-04-24T14:58:32;13.40;89.00
4635;DHT22;2330;48.158;11.816;2023-04-24T15:00:59;13.40;90.10
4635;DHT22;2330;48.158;11.816;2023-04-24T15:03:26;13.30;86.80
4635;DHT22;2330;48.158;11.816;2023-04-24T15:05:53;13.10;87.90
4635;DHT22;2330;48.158;11.816;2023-04-24T15:08:20;13.10;88.50
4635;DHT22;2330;48.158;11.816;2023-04-24T15:10:47;13.20;88.00
4635;DHT22;2330;48.158;11.816;2023-04-24T15:13:14;13.20;86.70
4635;DHT22;2330;48.158;11.816;2023-04-24T15:15:40;13.10;86.30
4635;DHT22;2330;48.158;11.816;2023-04-24T15:18:08;13.10;87.40
4635;DHT22;2330;48.158;11.816;2023-04-24T15:20:37;13.10;86.10
4635;DHT22;2330;48.158;11.816;2023-04-24T15:23:08;12.90;84.30
4635;DHT22;2330;48.158;11.816;2023-04-24T15:25:37;13.00;83.40
4635;DHT22;2330;48.158;11.816;2023-04-24T15:28:04;13.00;84.60
4635;DHT22;2330;48.158;11.816;2023-04-24T15:30:31;13.10;85.20
4635;DHT22;2330;48.158;11.816;2023-04-24T15:32:59;13.20;84.20
4635;DHT22;2330;48.158;11.816;2023-04-24T15:35:27;13.10;84.60
4635;DHT22;2330;48.158;11.816;2023-04-24T15:37:53;13.00;84.60
4635;DHT22;2330;48.158;11.816;2023-04-24T15:40:21;13.00;84.90
4635;DHT22;2330;48.158;11.816;2023-04-24T15:42:47;12.90;84.70
4635;DHT22;2330;48.158;11.816;2023-04-24T15:45:14;12.90;84.80
4635;DHT22;2330;48.158;11.816;2023-04-24T15:47:41;12.80;86.90
4635;DHT22;2330;48.158;11.816;2023-04-24T15:50:08;12.60;87.30
4635;DHT22;2330;48.158;11.816;2023-04-24T15:52:39;12.70;89.20
4635;DHT22;2330;48.158;11.816;2023-04-24T15:55:06;12.80;91.20
4635;DHT22;2330;48.158;11.816;2023-04-24T15:57:33;12.90;91.30
4635;DHT22;2330;48.158;11.816;2023-04-24T15:59:59;12.80;89.30
4635;DHT22;2330;48.158;11.816;2023-04-24T16:02:26;12.70;89.60